Main page
METAR-TAF:

METAR-TAF

Airports :

Agen La Garenne Airport

Agen, France

latitude: 44-11N, longitude: 000-36E, elevation: 61 m

Current weather observation

The report was made 24 minutes ago, at 04:30 UTC
Wind 2 kt from variable directions
Temperature -1°C
Humidity 93%
Pressure 1008 hPa
Visibility: 5000 m
Broken clouds at a height of 300 ft
Broken clouds at a height of 21000 ft
Overcast at a height of 24000 ft
mist

METAR: LFBA 210430Z AUTO VRB02KT 5000 BR BKN003 BKN210 OVC240 M01/M02 Q1008

Time: 05:54 (04:54 UTC)

Forecast

The report was made 11 hours and 54 minutes ago, at 17:00 UTC
Forecast valid from 20 at 18 UTC to 21 at 03 UTC
Wind 3 kt from variable directions
Visibility 10 km or more
Broken clouds at a height of 2500 ft
Probability 30% :
Temporary
from 20 at 18 UTC to 20 at 19 UTC
light rain

TAF: LFBA 201700Z 2018/2103 VRB03KT 9999 BKN025 PROB30 TEMPO 2018/2019 -RA

Weather observations and forecasts of more than 4000 airports (METAR and TAF reports).

The available stations are represented by yellow and red dots on the map.

Hover mouse over dot to see the name of the station.

Then click to see weather observations and forecasts.

To change the map : click on the green buttons with a black cross to zoom in, on the green button with a dash to zoom out, or on the green arrows for adjacent maps.


METAR-TAF: